Time;durP1;ratioP1;P1;durP2;ratioP2;P2;SDS_P1;SDS_P2;PMS_P1;PMS_P2;Temp;Humidity;BMP_temperature;BMP_pressure;BME280_temperature;BME280_humidity;BME280_pressure;Samples;Min_cycle;Max_cycle;Signal;HPM_P1;HPM_P2
2023/07/20 00:00:16;;;;;;;9.02;5.18;;;18.00;99.90;;;;;;5045985;28;20037;-50
2023/07/20 00:02:44;;;;;;;8.90;5.40;;;18.00;99.90;;;;;;5046205;28;20063;-46
2023/07/20 00:05:11;;;;;;;12.27;5.45;;;18.00;99.90;;;;;;5045304;28;20420;-45
2023/07/20 00:07:38;;;;;;;10.73;6.20;;;18.00;99.90;;;;;;5046205;28;20596;-43
2023/07/20 00:10:06;;;;;;;9.32;5.07;;;18.00;99.90;;;;;;5050677;28;20049;-43
2023/07/20 00:12:33;;;;;;;8.32;5.35;;;18.00;99.90;;;;;;5049524;28;21182;-50
2023/07/20 00:15:01;;;;;;;9.20;5.25;;;18.00;99.90;;;;;;5050363;28;20091;-43
2023/07/20 00:17:28;;;;;;;8.68;5.47;;;18.00;99.90;;;;;;5048898;28;20045;-48
2023/07/20 00:19:55;;;;;;;10.60;5.63;;;18.00;99.90;;;;;;5050374;28;20136;-48
2023/07/20 00:22:23;;;;;;;8.65;5.25;;;18.00;99.90;;;;;;5048693;28;20033;-43
2023/07/20 00:24:50;;;;;;;8.13;5.20;;;17.90;99.90;;;;;;5049510;28;20072;-47
2023/07/20 00:27:17;;;;;;;13.30;5.50;;;17.90;99.90;;;;;;5048556;28;20420;-45
2023/07/20 00:29:45;;;;;;;9.80;5.40;;;18.00;99.90;;;;;;5046924;28;20043;-45
2023/07/20 00:32:12;;;;;;;9.00;4.95;;;18.00;99.90;;;;;;5048980;28;20136;-46
2023/07/20 00:34:39;;;;;;;12.13;5.80;;;18.10;99.90;;;;;;5048092;28;20041;-49
2023/07/20 00:37:07;;;;;;;9.30;5.50;;;18.10;99.90;;;;;;5029254;28;20046;-45
2023/07/20 00:39:35;;;;;;;8.75;5.50;;;18.10;99.90;;;;;;5036496;28;20072;-46
2023/07/20 00:42:02;;;;;;;12.55;6.13;;;18.10;99.90;;;;;;5026723;28;20108;-45
2023/07/20 00:44:30;;;;;;;9.20;5.65;;;18.00;99.90;;;;;;5055250;28;20087;-49
2023/07/20 00:46:59;;;;;;;12.52;6.03;;;18.00;99.90;;;;;;5059303;28;20045;-45
2023/07/20 00:49:26;;;;;;;10.95;6.20;;;18.00;99.90;;;;;;5047417;28;20401;-47
2023/07/20 00:51:54;;;;;;;8.20;5.25;;;18.00;99.90;;;;;;5049742;28;20509;-49
2023/07/20 00:54:21;;;;;;;7.50;5.70;;;18.00;99.90;;;;;;5033083;28;20436;-46
2023/07/20 00:56:50;;;;;;;9.85;5.90;;;17.90;99.90;;;;;;5038675;28;20110;-49
2023/07/20 00:59:17;;;;;;;10.20;5.55;;;17.90;99.90;;;;;;5045154;28;20458;-45
2023/07/20 01:01:45;;;;;;;9.65;5.80;;;17.80;99.90;;;;;;5045553;28;20033;-50
2023/07/20 01:04:13;;;;;;;9.82;5.80;;;17.70;99.90;;;;;;5043870;28;20049;-48
2023/07/20 01:06:52;;;;;;;10.32;6.10;;;17.70;99.90;;;;;;5041511;28;20041;-47
2023/07/20 01:09:57;;;;;;;9.63;6.05;;;17.70;99.90;;;;;;5053483;28;20072;-45
2023/07/20 01:12:43;;;;;;;8.18;5.28;;;17.70;99.90;;;;;;5055170;28;20052;-47
2023/07/20 01:15:12;;;;;;;10.43;5.32;;;17.80;99.90;;;;;;5038072;28;20424;-45
2023/07/20 01:17:39;;;;;;;11.13;6.25;;;17.80;99.90;;;;;;5050135;28;20036;-49
2023/07/20 01:20:12;;;;;;;9.98;5.63;;;17.80;99.90;;;;;;5027552;28;20140;-45
2023/07/20 01:23:23;;;;;;;11.75;6.25;;;17.80;99.90;;;;;;5051638;28;20064;-52
2023/07/20 01:26:06;;;;;;;10.07;5.55;;;17.70;99.90;;;;;;5027695;28;20044;-43
2023/07/20 01:29:09;;;;;;;11.52;5.93;;;17.70;99.90;;;;;;5048315;28;20148;-52
2023/07/20 01:31:38;;;;;;;12.30;6.13;;;17.70;99.90;;;;;;5048539;28;20077;-44
2023/07/20 01:34:08;;;;;;;9.93;6.13;;;17.70;99.90;;;;;;5047196;28;20044;-44
2023/07/20 01:36:38;;;;;;;13.85;6.72;;;17.70;99.90;;;;;;5030537;28;20106;-49
2023/07/20 01:39:06;;;;;;;8.50;5.63;;;17.70;99.90;;;;;;5029809;28;20045;-45
2023/07/20 01:41:34;;;;;;;10.10;6.00;;;17.70;99.90;;;;;;5047870;28;20191;-43
2023/07/20 01:44:03;;;;;;;10.13;6.53;;;17.70;99.90;;;;;;5047103;28;20091;-47
2023/07/20 01:46:31;;;;;;;11.73;6.18;;;17.70;99.90;;;;;;5047292;28;20041;-48
2023/07/20 01:48:58;;;;;;;9.40;6.07;;;17.60;99.90;;;;;;5047849;28;20057;-46
2023/07/20 01:51:26;;;;;;;10.45;6.30;;;17.60;99.90;;;;;;5048748;28;20072;-46
2023/07/20 01:53:54;;;;;;;10.93;6.20;;;17.50;99.90;;;;;;5046769;28;20479;-44
2023/07/20 01:56:21;;;;;;;13.02;5.57;;;17.50;99.90;;;;;;5047890;28;20122;-49
2023/07/20 01:58:49;;;;;;;12.38;6.82;;;17.50;99.90;;;;;;5029522;28;20127;-46
2023/07/20 02:01:17;;;;;;;10.85;5.75;;;17.50;99.90;;;;;;5029125;28;20048;-45
2023/07/20 02:03:44;;;;;;;9.60;5.85;;;17.50;99.90;;;;;;5044891;28;20041;-45
2023/07/20 02:06:11;;;;;;;10.55;6.47;;;17.50;99.90;;;;;;5048242;28;20057;-44
2023/07/20 02:08:39;;;;;;;11.38;6.53;;;17.50;99.90;;;;;;5047854;28;20578;-51
2023/07/20 02:11:06;;;;;;;12.00;6.78;;;17.60;99.90;;;;;;5047848;28;20045;-45
2023/07/20 02:13:36;;;;;;;10.73;6.38;;;17.60;99.90;;;;;;5047569;28;20062;-44
2023/07/20 02:16:04;;;;;;;10.77;6.57;;;17.60;99.90;;;;;;5046484;28;20052;-50
2023/07/20 02:18:31;;;;;;;12.43;7.10;;;17.60;99.90;;;;;;5028306;28;20076;-47
2023/07/20 02:20:59;;;;;;;11.20;6.65;;;17.60;99.90;;;;;;5045773;28;20484;-43
2023/07/20 02:23:26;;;;;;;13.38;7.65;;;17.60;99.90;;;;;;5046554;28;20033;-44
2023/07/20 02:25:53;;;;;;;12.10;7.13;;;17.60;99.90;;;;;;5046800;28;20521;-48
2023/07/20 02:28:21;;;;;;;14.55;8.70;;;17.60;99.90;;;;;;5047058;28;20160;-46
2023/07/20 02:30:49;;;;;;;14.32;7.60;;;17.50;99.90;;;;;;5045819;28;20076;-44
2023/07/20 02:33:16;;;;;;;14.15;7.65;;;17.50;99.90;;;;;;5047676;28;20540;-42
2023/07/20 02:35:43;;;;;;;13.48;7.80;;;17.60;99.90;;;;;;5029277;28;20056;-44
2023/07/20 02:38:11;;;;;;;10.82;7.60;;;17.50;99.90;;;;;;5040386;28;20045;-47
2023/07/20 02:40:38;;;;;;;12.18;7.05;;;17.50;99.90;;;;;;5047084;28;20049;-47
2023/07/20 02:43:05;;;;;;;12.52;7.50;;;17.50;99.90;;;;;;5045875;28;20029;-44
2023/07/20 02:45:34;;;;;;;12.05;7.50;;;17.50;99.90;;;;;;5026320;28;20056;-45
2023/07/20 02:48:02;;;;;;;13.88;7.50;;;17.60;99.90;;;;;;5028396;28;20420;-43
2023/07/20 02:50:29;;;;;;;10.93;7.10;;;17.60;99.90;;;;;;5026900;28;20033;-45
2023/07/20 02:52:57;;;;;;;15.15;7.55;;;17.60;99.90;;;;;;5029371;28;20556;-44
2023/07/20 02:55:24;;;;;;;13.93;7.82;;;17.60;99.90;;;;;;5047359;28;20059;-43
2023/07/20 02:57:51;;;;;;;13.73;7.93;;;17.60;99.90;;;;;;5026688;28;20044;-48
2023/07/20 03:00:23;;;;;;;11.93;7.28;;;17.60;99.90;;;;;;5027283;28;20100;-48
2023/07/20 03:02:55;;;;;;;12.70;7.80;;;17.60;99.90;;;;;;5028356;28;20395;-43
2023/07/20 03:05:27;;;;;;;12.55;7.55;;;17.60;99.90;;;;;;5046295;28;20036;-50
2023/07/20 03:07:56;;;;;;;14.32;8.23;;;17.60;99.90;;;;;;5027753;28;20043;-44
2023/07/20 03:10:23;;;;;;;17.38;8.15;;;17.50;99.90;;;;;;5046692;28;20397;-42
2023/07/20 03:12:50;;;;;;;16.98;8.75;;;17.50;99.90;;;;;;5045592;28;20549;-55
2023/07/20 03:15:18;;;;;;;13.15;8.30;;;17.40;99.90;;;;;;5027758;28;20045;-49
2023/07/20 03:17:45;;;;;;;12.90;7.28;;;17.40;99.90;;;;;;5044081;28;20067;-47
2023/07/20 03:20:13;;;;;;;10.52;7.40;;;17.30;99.90;;;;;;5028672;28;20049;-49
2023/07/20 03:22:41;;;;;;;15.30;7.82;;;17.20;99.90;;;;;;5028309;28;20135;-46
2023/07/20 03:25:08;;;;;;;11.68;6.97;;;17.20;99.90;;;;;;5029605;28;20037;-47
2023/07/20 03:27:36;;;;;;;15.07;7.28;;;17.10;99.90;;;;;;5030829;28;20121;-47
2023/07/20 03:30:04;;;;;;;10.90;7.13;;;17.10;99.90;;;;;;5043182;28;20071;-48
2023/07/20 03:32:31;;;;;;;14.18;7.30;;;17.00;99.90;;;;;;5046103;28;20053;-44
2023/07/20 03:34:59;;;;;;;13.70;6.43;;;17.00;99.90;;;;;;5027869;28;20142;-46
2023/07/20 03:37:26;;;;;;;11.00;7.13;;;17.00;99.90;;;;;;5029492;28;20464;-48
2023/07/20 03:39:53;;;;;;;17.42;7.20;;;16.90;99.90;;;;;;5027898;28;20044;-46
2023/07/20 03:42:21;;;;;;;11.43;6.72;;;16.90;99.90;;;;;;5046406;28;20473;-45
2023/07/20 03:44:48;;;;;;;12.27;6.95;;;16.90;99.90;;;;;;5050869;28;20125;-45
2023/07/20 03:47:16;;;;;;;17.90;7.45;;;16.90;99.90;;;;;;5033060;28;20597;-45
2023/07/20 03:49:43;;;;;;;11.68;6.80;;;17.00;99.90;;;;;;5048375;28;20051;-45
2023/07/20 03:52:10;;;;;;;17.40;6.90;;;17.00;99.90;;;;;;5050615;28;20425;-43
2023/07/20 03:54:38;;;;;;;10.55;6.57;;;17.10;99.90;;;;;;5049307;28;20045;-44
2023/07/20 03:57:05;;;;;;;16.23;7.15;;;17.10;99.90;;;;;;5049760;28;20076;-42
2023/07/20 03:59:33;;;;;;;15.30;7.18;;;17.10;99.90;;;;;;5047655;28;20041;-47
2023/07/20 04:02:01;;;;;;;12.90;6.55;;;17.20;99.90;;;;;;5049707;28;20128;-45
2023/07/20 04:04:28;;;;;;;11.35;5.75;;;17.20;99.90;;;;;;5030840;28;20055;-45
2023/07/20 04:06:55;;;;;;;11.50;6.88;;;17.20;99.90;;;;;;5050096;28;20137;-43
2023/07/20 04:09:23;;;;;;;11.75;6.25;;;17.20;99.90;;;;;;5047855;28;20174;-46
2023/07/20 04:11:50;;;;;;;8.90;5.60;;;17.20;99.90;;;;;;5048946;28;20083;-46
2023/07/20 04:14:17;;;;;;;12.32;6.40;;;17.30;99.90;;;;;;5049581;28;20087;-44
2023/07/20 04:16:47;;;;;;;13.48;7.05;;;17.30;99.90;;;;;;5039280;28;20052;-50
2023/07/20 04:19:14;;;;;;;13.93;6.00;;;17.30;99.90;;;;;;5030891;28;20049;-50
2023/07/20 04:21:42;;;;;;;9.55;5.90;;;17.30;99.90;;;;;;5049017;28;20094;-46
2023/07/20 04:24:09;;;;;;;13.05;6.53;;;17.40;99.90;;;;;;5031303;28;20041;-45
2023/07/20 04:26:37;;;;;;;13.40;7.20;;;17.30;99.90;;;;;;5030940;28;20049;-47
2023/07/20 04:29:05;;;;;;;9.82;6.88;;;17.40;99.90;;;;;;5048625;28;20068;-45
2023/07/20 04:31:38;;;;;;;11.23;6.07;;;17.40;99.90;;;;;;5030549;28;20104;-46
2023/07/20 04:34:06;;;;;;;14.27;6.43;;;17.40;99.90;;;;;;5049493;28;20134;-47
2023/07/20 04:36:35;;;;;;;11.27;6.50;;;17.50;99.90;;;;;;5030870;28;20077;-43
2023/07/20 04:39:04;;;;;;;10.50;6.57;;;17.50;99.90;;;;;;5026805;28;20037;-45
2023/07/20 04:41:43;;;;;;;14.68;6.38;;;17.60;99.90;;;;;;5030537;28;20045;-44
2023/07/20 04:44:11;;;;;;;14.63;7.05;;;17.60;99.90;;;;;;5029941;28;20044;-47
2023/07/20 04:46:39;;;;;;;11.32;6.05;;;17.60;99.90;;;;;;5048678;28;20083;-47
2023/07/20 04:49:07;;;;;;;10.40;5.78;;;17.70;99.90;;;;;;5033268;28;20049;-46
2023/07/20 04:51:38;;;;;;;10.07;5.78;;;17.80;99.90;;;;;;5030213;28;20132;-52
2023/07/20 04:54:06;;;;;;;12.02;5.88;;;17.70;99.90;;;;;;5034309;28;20395;-46
2023/07/20 04:56:36;;;;;;;12.88;6.22;;;17.70;99.90;;;;;;5029881;28;20053;-42
2023/07/20 04:59:06;;;;;;;13.60;6.18;;;17.80;99.90;;;;;;5025299;28;20038;-47
2023/07/20 05:01:34;;;;;;;11.13;6.00;;;17.80;99.90;;;;;;5027386;28;20064;-44
2023/07/20 05:04:02;;;;;;;11.57;5.35;;;17.70;99.90;;;;;;5048679;28;20033;-46
2023/07/20 05:06:29;;;;;;;10.93;5.63;;;17.80;99.90;;;;;;5029365;28;20037;-45
2023/07/20 05:08:57;;;;;;;11.35;5.45;;;17.90;99.90;;;;;;5029472;28;20112;-44
2023/07/20 05:11:24;;;;;;;10.95;5.78;;;17.90;99.90;;;;;;5029699;28;20045;-52
2023/07/20 05:13:52;;;;;;;10.15;5.97;;;18.00;99.90;;;;;;5030504;28;20532;-47
2023/07/20 05:16:19;;;;;;;8.55;5.53;;;18.00;99.90;;;;;;5048940;28;20045;-47
2023/07/20 05:18:47;;;;;;;12.95;5.43;;;18.00;99.90;;;;;;5028485;28;20186;-49
2023/07/20 05:21:14;;;;;;;13.98;6.10;;;18.00;99.90;;;;;;5045591;28;20045;-46
2023/07/20 05:23:42;;;;;;;9.98;5.32;;;17.90;99.90;;;;;;5049480;28;20044;-44
2023/07/20 05:26:09;;;;;;;12.70;5.85;;;17.90;99.90;;;;;;5034228;28;20060;-49
2023/07/20 05:28:36;;;;;;;9.65;5.50;;;17.90;99.90;;;;;;5048045;28;20120;-42
2023/07/20 05:31:04;;;;;;;10.65;5.45;;;17.80;99.90;;;;;;5055518;28;20040;-46
2023/07/20 05:33:31;;;;;;;12.93;6.20;;;17.80;99.90;;;;;;5056979;28;20049;-46
2023/07/20 05:35:59;;;;;;;9.88;5.63;;;17.80;99.90;;;;;;5032286;28;20041;-41
2023/07/20 05:38:26;;;;;;;10.55;5.57;;;17.80;99.90;;;;;;5038161;28;20227;-40
2023/07/20 05:41:01;;;;;;;12.50;6.38;;;17.80;99.90;;;;;;5043584;28;20405;-46
2023/07/20 05:43:28;;;;;;;14.70;6.20;;;17.90;99.90;;;;;;5044198;28;20072;-46
2023/07/20 05:45:56;;;;;;;11.40;5.95;;;17.80;99.90;;;;;;5041627;28;20502;-47
2023/07/20 05:48:24;;;;;;;14.85;6.10;;;17.80;99.90;;;;;;5041897;28;20044;-43
2023/07/20 05:50:51;;;;;;;12.85;5.95;;;17.90;99.90;;;;;;5046860;28;20120;-49
2023/07/20 05:53:18;;;;;;;13.57;6.28;;;18.00;99.90;;;;;;5043794;28;20513;-46
2023/07/20 05:55:52;;;;;;;11.15;6.00;;;17.90;99.90;;;;;;5043532;28;20075;-47
2023/07/20 05:58:20;;;;;;;15.95;5.72;;;18.00;99.90;;;;;;5043138;28;20573;-48
2023/07/20 06:00:50;;;;;;;12.10;5.22;;;18.10;99.90;;;;;;5051822;28;20048;-43
2023/07/20 06:03:18;;;;;;;8.77;5.50;;;18.20;99.90;;;;;;5044009;28;20421;-45
2023/07/20 06:05:45;;;;;;;12.25;5.25;;;18.30;99.90;;;;;;5047541;28;20036;-44
2023/07/20 06:08:13;;;;;;;12.50;5.10;;;18.20;99.90;;;;;;5059554;28;20053;-42
2023/07/20 06:10:40;;;;;;;9.18;4.90;;;18.20;99.90;;;;;;5050757;28;20788;-45
2023/07/20 06:13:11;;;;;;;10.13;4.80;;;18.20;99.90;;;;;;5051002;28;20063;-41
2023/07/20 06:15:41;;;;;;;8.48;4.85;;;18.10;99.90;;;;;;5053994;28;20056;-45
2023/07/20 06:18:08;;;;;;;15.50;4.90;;;18.20;99.90;;;;;;5055728;28;20036;-41
2023/07/20 06:20:35;;;;;;;17.55;5.22;;;18.20;99.90;;;;;;5048152;28;20037;-44
2023/07/20 06:23:03;;;;;;;11.93;4.60;;;18.20;99.90;;;;;;5039744;28;20074;-47
2023/07/20 06:25:30;;;;;;;13.32;4.93;;;18.20;99.90;;;;;;5048081;28;20137;-46
2023/07/20 06:27:57;;;;;;;12.27;5.13;;;18.30;99.90;;;;;;5045709;28;20065;-46
2023/07/20 06:30:25;;;;;;;12.10;4.80;;;18.30;99.90;;;;;;5040376;28;20155;-45
2023/07/20 06:32:54;;;;;;;11.73;5.63;;;18.20;99.90;;;;;;5045647;28;20192;-45
2023/07/20 06:35:28;;;;;;;15.23;5.85;;;18.20;99.90;;;;;;5034438;28;20059;-44
2023/07/20 06:37:55;;;;;;;15.95;5.47;;;18.20;99.90;;;;;;5052631;28;20076;-51
2023/07/20 06:40:23;;;;;;;9.38;5.03;;;18.30;99.90;;;;;;5045064;28;20501;-45
2023/07/20 06:42:53;;;;;;;9.52;5.78;;;18.40;99.90;;;;;;5045658;28;20565;-44
2023/07/20 06:45:24;;;;;;;11.48;5.03;;;18.50;99.90;;;;;;5022931;28;20045;-46
2023/07/20 06:47:52;;;;;;;11.80;5.60;;;18.50;99.90;;;;;;5046832;28;20521;-44
2023/07/20 06:50:19;;;;;;;15.68;7.00;;;18.50;99.90;;;;;;5046962;28;20083;-41
2023/07/20 06:52:47;;;;;;;10.65;5.55;;;18.70;99.90;;;;;;5042507;28;20095;-43
2023/07/20 06:55:15;;;;;;;11.30;6.05;;;18.60;99.90;;;;;;5047002;28;20080;-45
2023/07/20 06:57:48;;;;;;;15.55;5.80;;;18.70;99.90;;;;;;5041474;28;20055;-44
2023/07/20 07:00:15;;;;;;;10.70;5.45;;;18.80;99.90;;;;;;5025347;28;20048;-45
2023/07/20 07:02:43;;;;;;;13.52;7.20;;;18.90;99.90;;;;;;5046628;28;20041;-45
2023/07/20 07:05:15;;;;;;;8.82;5.50;;;19.00;99.90;;;;;;5046624;28;20049;-43
2023/07/20 07:07:46;;;;;;;11.48;5.65;;;19.20;99.90;;;;;;5046475;28;20055;-46
2023/07/20 07:10:14;;;;;;;9.40;5.07;;;19.30;99.90;;;;;;5046926;28;20136;-40
2023/07/20 07:12:41;;;;;;;9.00;5.10;;;19.40;99.90;;;;;;5046975;28;20257;-40
2023/07/20 07:15:10;;;;;;;12.32;5.22;;;19.50;99.90;;;;;;5043427;28;20124;-47
2023/07/20 07:17:38;;;;;;;7.72;5.35;;;19.60;99.90;;;;;;5048703;28;20094;-43
2023/07/20 07:20:07;;;;;;;6.75;4.53;;;19.60;99.90;;;;;;5051874;28;20040;-45
2023/07/20 07:22:37;;;;;;;10.60;5.78;;;19.60;99.90;;;;;;5051100;28;20036;-52
2023/07/20 07:25:05;;;;;;;12.93;5.25;;;19.80;99.90;;;;;;5050569;28;20051;-45
2023/07/20 07:27:33;;;;;;;8.20;4.82;;;20.00;99.90;;;;;;5051102;28;20091;-47
2023/07/20 07:30:00;;;;;;;7.30;4.65;;;20.10;99.90;;;;;;5044363;28;20170;-42
2023/07/20 07:32:28;;;;;;;10.18;4.57;;;20.10;99.90;;;;;;5050592;28;20053;-45
2023/07/20 07:34:58;;;;;;;6.88;4.90;;;20.10;99.90;;;;;;5050938;28;20091;-47
2023/07/20 07:37:25;;;;;;;6.35;4.90;;;20.30;99.90;;;;;;5049465;28;20045;-43
2023/07/20 07:39:52;;;;;;;8.38;4.40;;;20.30;99.90;;;;;;5051059;28;20048;-45
2023/07/20 07:42:20;;;;;;;7.93;5.03;;;20.20;99.90;;;;;;5049693;28;20064;-47
2023/07/20 07:44:50;;;;;;;7.90;5.00;;;20.30;99.90;;;;;;5050048;28;20038;-43
2023/07/20 07:47:18;;;;;;;8.45;4.93;;;20.60;99.90;;;;;;5049673;28;20131;-45
2023/07/20 07:49:45;;;;;;;10.20;5.28;;;20.70;99.90;;;;;;5049496;28;20051;-44
2023/07/20 07:52:14;;;;;;;8.70;5.18;;;20.60;99.90;;;;;;5050824;28;20057;-44
2023/07/20 07:54:41;;;;;;;8.38;4.95;;;20.60;99.90;;;;;;5048098;28;20102;-47
2023/07/20 07:57:08;;;;;;;10.30;5.90;;;20.80;99.90;;;;;;5050107;28;20496;-47
2023/07/20 07:59:37;;;;;;;8.23;4.60;;;21.00;99.90;;;;;;5047790;28;20049;-47
2023/07/20 08:02:05;;;;;;;8.93;5.10;;;21.10;99.90;;;;;;5050430;28;20079;-41
2023/07/20 08:04:32;;;;;;;8.63;5.10;;;21.00;99.90;;;;;;5048733;28;20059;-41
2023/07/20 08:07:02;;;;;;;8.05;4.50;;;21.20;99.90;;;;;;5050506;28;20033;-44
2023/07/20 08:09:29;;;;;;;7.90;4.80;;;21.10;99.90;;;;;;5047159;28;20128;-43
2023/07/20 08:11:57;;;;;;;6.80;4.85;;;21.00;99.90;;;;;;5048336;28;20044;-47
2023/07/20 08:14:24;;;;;;;6.10;4.68;;;20.90;99.90;;;;;;5048154;28;20033;-48
2023/07/20 08:16:52;;;;;;;8.70;4.88;;;21.00;99.90;;;;;;5049918;28;20136;-42
2023/07/20 08:19:20;;;;;;;8.02;5.05;;;21.20;99.90;;;;;;5049721;28;20098;-42
2023/07/20 08:21:48;;;;;;;7.50;5.55;;;21.30;99.90;;;;;;5049691;28;20053;-43
2023/07/20 08:24:15;;;;;;;8.00;4.97;;;21.50;99.90;;;;;;5049391;28;20107;-47
2023/07/20 08:26:43;;;;;;;7.10;5.22;;;21.40;99.90;;;;;;5049166;28;20053;-51
2023/07/20 08:29:10;;;;;;;8.00;4.40;;;21.20;99.90;;;;;;5049411;28;20045;-46
2023/07/20 08:31:37;;;;;;;8.30;5.10;;;20.90;99.90;;;;;;5031091;28;20433;-46
2023/07/20 08:34:04;;;;;;;12.95;5.10;;;20.80;99.90;;;;;;5050254;28;20128;-41
2023/07/20 08:36:50;;;;;;;8.18;5.05;;;20.80;99.90;;;;;;5049117;28;20068;-42
2023/07/20 08:39:17;;;;;;;7.45;4.90;;;20.80;99.90;;;;;;5049622;28;20528;-43
2023/07/20 08:41:47;;;;;;;8.00;4.93;;;20.80;99.90;;;;;;5048705;28;20064;-48
2023/07/20 08:44:15;;;;;;;7.35;4.85;;;20.90;99.90;;;;;;5047423;28;20128;-51
2023/07/20 08:46:43;;;;;;;6.68;4.68;;;21.00;99.90;;;;;;5046327;28;20045;-44
2023/07/20 08:49:11;;;;;;;7.57;5.05;;;21.00;99.90;;;;;;5049309;28;20506;-40
2023/07/20 08:51:40;;;;;;;6.20;5.10;;;21.10;99.90;;;;;;5045479;28;20045;-47
2023/07/20 08:54:12;;;;;;;6.32;5.10;;;21.30;99.90;;;;;;5049374;28;20108;-42
2023/07/20 08:56:41;;;;;;;7.50;5.13;;;21.60;99.90;;;;;;5045776;28;20068;-46
2023/07/20 08:59:08;;;;;;;7.38;4.75;;;21.50;99.90;;;;;;5047428;28;20106;-45
2023/07/20 09:01:39;;;;;;;9.45;4.43;;;21.50;99.90;;;;;;5047260;28;20064;-44
2023/07/20 09:04:06;;;;;;;5.90;4.45;;;21.60;99.90;;;;;;5047919;28;20037;-43
2023/07/20 09:06:35;;;;;;;9.95;4.60;;;21.80;99.90;;;;;;5048412;28;20052;-46
2023/07/20 09:09:02;;;;;;;5.22;4.63;;;22.20;99.90;;;;;;5048768;28;20583;-44
2023/07/20 09:11:30;;;;;;;7.35;4.85;;;22.40;99.90;;;;;;5048049;28;20125;-44
2023/07/20 09:14:08;;;;;;;7.05;5.18;;;22.20;99.90;;;;;;5048526;28;20044;-45
2023/07/20 09:16:55;;;;;;;9.23;5.13;;;22.30;99.90;;;;;;5046596;28;20144;-48
2023/07/20 09:19:22;;;;;;;7.60;5.18;;;22.30;99.90;;;;;;5047308;28;20425;-47
2023/07/20 09:21:51;;;;;;;5.93;4.53;;;22.40;99.90;;;;;;5048132;28;20090;-45
2023/07/20 09:24:19;;;;;;;6.53;4.95;;;22.70;99.90;;;;;;5048010;28;20053;-47
2023/07/20 09:26:49;;;;;;;7.43;4.85;;;22.60;99.90;;;;;;5046370;28;20044;-47
2023/07/20 09:29:18;;;;;;;7.18;5.30;;;22.40;99.90;;;;;;5045976;28;20425;-43
2023/07/20 09:32:00;;;;;;;6.63;5.18;;;22.60;99.90;;;;;;5045655;28;20052;-44
2023/07/20 09:34:31;;;;;;;5.85;4.88;;;22.80;99.90;;;;;;5045597;28;20048;-47
2023/07/20 09:37:02;;;;;;;5.72;4.95;;;22.70;99.90;;;;;;5045802;28;20127;-45
2023/07/20 09:39:30;;;;;;;5.95;4.70;;;22.70;99.90;;;;;;5039497;28;20143;-48
2023/07/20 09:42:02;;;;;;;6.50;4.93;;;22.70;99.90;;;;;;5045311;28;20055;-47
2023/07/20 09:44:32;;;;;;;6.30;5.10;;;22.70;99.90;;;;;;5047040;28;20185;-42
2023/07/20 09:47:03;;;;;;;7.75;4.80;;;22.80;99.90;;;;;;5050784;28;20048;-44
2023/07/20 09:49:32;;;;;;;7.70;4.70;;;23.00;99.90;;;;;;5048158;28;20048;-49
2023/07/20 09:52:20;;;;;;;8.18;5.03;;;22.80;99.90;;;;;;5047321;28;20037;-45
2023/07/20 09:54:51;;;;;;;7.68;4.90;;;22.50;99.90;;;;;;5040789;28;20127;-44
2023/07/20 09:57:19;;;;;;;4.88;4.47;;;22.10;99.90;;;;;;5043814;28;20049;-46
2023/07/20 09:59:46;;;;;;;5.35;4.68;;;21.90;99.90;;;;;;5044887;28;20048;-46
2023/07/20 10:02:22;;;;;;;5.75;5.05;;;21.90;99.90;;;;;;5046781;28;20095;-44
2023/07/20 10:04:53;;;;;;;5.30;4.80;;;22.10;99.90;;;;;;5046569;28;20079;-48
2023/07/20 10:07:24;;;;;;;5.10;4.57;;;22.40;99.90;;;;;;5046346;28;20041;-40
2023/07/20 10:09:53;;;;;;;5.27;4.77;;;22.50;99.90;;;;;;5047806;28;20041;-48
2023/07/20 10:12:23;;;;;;;5.13;4.60;;;22.70;99.90;;;;;;5046318;28;20045;-50
2023/07/20 10:15:03;;;;;;;6.05;4.97;;;22.90;99.90;;;;;;5041703;28;20090;-43
2023/07/20 10:17:31;;;;;;;6.80;5.15;;;23.10;99.90;;;;;;5046571;28;20120;-42
2023/07/20 10:20:03;;;;;;;6.43;5.03;;;23.10;99.90;;;;;;5048719;28;20080;-42
2023/07/20 10:22:35;;;;;;;6.03;4.82;;;23.10;99.90;;;;;;5046850;28;20052;-51
2023/07/20 10:25:09;;;;;;;6.07;4.65;;;23.00;99.90;;;;;;5043146;28;20434;-43
2023/07/20 10:27:37;;;;;;;5.32;4.72;;;23.20;99.90;;;;;;5045339;28;20177;-54
2023/07/20 10:30:05;;;;;;;5.50;5.00;;;23.30;99.90;;;;;;5042626;28;20540;-42
2023/07/20 10:32:33;;;;;;;5.38;4.80;;;23.50;99.90;;;;;;5045831;28;20468;-43
2023/07/20 10:35:01;;;;;;;5.53;5.03;;;23.80;99.90;;;;;;5046688;28;20041;-47
2023/07/20 10:38:03;;;;;;;5.40;4.95;;;23.90;99.90;;;;;;5045551;28;20055;-42
2023/07/20 10:40:38;;;;;;;5.03;4.63;;;23.80;99.90;;;;;;4946442;28;20078;-46
2023/07/20 10:43:07;;;;;;;5.60;5.10;;;24.00;99.90;;;;;;4949501;28;20097;-43
2023/07/20 10:45:41;;;;;;;5.55;5.05;;;24.10;99.90;;;;;;4945571;28;20130;-42
2023/07/20 10:48:19;;;;;;;5.63;5.10;;;24.10;99.90;;;;;;4949680;28;20116;-42
2023/07/20 10:51:14;;;;;;;6.43;4.68;;;24.40;99.90;;;;;;4945460;28;20138;-41
2023/07/20 10:53:41;;;;;;;5.00;4.60;;;24.40;99.90;;;;;;4950473;28;20087;-45
2023/07/20 10:56:16;;;;;;;6.43;5.25;;;24.80;99.90;;;;;;4952562;28;20556;-47
2023/07/20 10:58:43;;;;;;;5.55;5.00;;;24.80;99.90;;;;;;4948319;28;20047;-44
2023/07/20 11:01:17;;;;;;;6.43;5.45;;;24.80;99.90;;;;;;4941619;28;20051;-41
2023/07/20 11:03:50;;;;;;;5.43;5.03;;;24.90;98.60;;;;;;4947465;28;20142;-45
2023/07/20 11:06:26;;;;;;;5.63;5.00;;;24.60;96.80;;;;;;4950248;28;20143;-46
2023/07/20 11:09:11;;;;;;;5.80;5.20;;;24.50;91.80;;;;;;4946266;28;20067;-44
2023/07/20 11:11:39;;;;;;;6.20;5.70;;;24.60;92.80;;;;;;4949014;28;20090;-49
2023/07/20 11:14:23;;;;;;;5.82;4.88;;;24.80;94.30;;;;;;4961088;28;20139;-45
2023/07/20 11:16:52;;;;;;;5.60;5.10;;;25.10;93.60;;;;;;5041832;28;20053;-45
2023/07/20 11:19:20;;;;;;;6.65;5.32;;;25.50;92.10;;;;;;5044816;28;20529;-45
2023/07/20 11:21:53;;;;;;;5.45;4.97;;;25.90;90.90;;;;;;5045464;28;20361;-48
2023/07/20 11:24:31;;;;;;;5.68;5.18;;;25.70;84.30;;;;;;5044792;28;20106;-43
2023/07/20 11:27:01;;;;;;;5.90;5.40;;;25.90;86.00;;;;;;5045511;28;20497;-43
2023/07/20 11:29:28;;;;;;;6.10;5.50;;;26.40;86.70;;;;;;5045164;28;20067;-43
2023/07/20 11:32:02;;;;;;;5.47;5.03;;;26.10;85.70;;;;;;5046293;28;20080;-44
2023/07/20 11:34:33;;;;;;;5.85;5.20;;;25.80;89.30;;;;;;5044460;28;20072;-45
2023/07/20 11:37:02;;;;;;;5.55;5.00;;;25.50;90.90;;;;;;5046107;28;20048;-49
2023/07/20 11:39:32;;;;;;;5.95;5.35;;;25.80;90.90;;;;;;5039673;28;20049;-46
2023/07/20 11:42:00;;;;;;;10.18;5.50;;;25.70;90.40;;;;;;5044106;28;20037;-46
2023/07/20 11:44:28;;;;;;;5.80;5.30;;;26.30;90.60;;;;;;5045002;28;20651;-47
2023/07/20 11:47:07;;;;;;;5.13;4.70;;;26.50;87.20;;;;;;5045176;28;20037;-43
2023/07/20 11:49:37;;;;;;;6.15;5.38;;;26.90;85.80;;;;;;5027562;28;20053;-42
2023/07/20 11:52:10;;;;;;;6.05;5.45;;;27.10;86.90;;;;;;5046011;28;20064;-46
2023/07/20 11:54:41;;;;;;;5.25;4.85;;;27.00;85.40;;;;;;5045653;28;20057;-46
2023/07/20 11:57:21;;;;;;;7.10;4.95;;;26.90;83.70;;;;;;5042433;28;20041;-46
2023/07/20 12:00:01;;;;;;;5.63;4.80;;;26.80;83.90;;;;;;5043549;28;20080;-46
2023/07/20 12:02:32;;;;;;;5.00;4.60;;;27.40;83.10;;;;;;5043577;28;20045;-43
2023/07/20 12:05:02;;;;;;;5.55;5.00;;;27.60;78.80;;;;;;5048262;28;20045;-40
2023/07/20 12:07:29;;;;;;;5.43;4.95;;;27.90;77.00;;;;;;5048667;28;20056;-43
2023/07/20 12:10:07;;;;;;;6.97;4.90;;;27.90;74.40;;;;;;5048717;28;20044;-43
2023/07/20 12:12:38;;;;;;;5.10;4.70;;;27.90;73.20;;;;;;5047990;28;20088;-44
2023/07/20 12:15:21;;;;;;;5.20;4.80;;;28.40;72.10;;;;;;5049776;28;20103;-43
2023/07/20 12:17:51;;;;;;;5.70;5.05;;;28.30;68.30;;;;;;5047311;28;20045;-47
2023/07/20 12:20:34;;;;;;;5.50;5.00;;;28.70;66.80;;;;;;5048497;28;20068;-41
2023/07/20 12:23:08;;;;;;;5.85;5.28;;;28.10;65.60;;;;;;5048502;28;20126;-44
2023/07/20 12:25:44;;;;;;;5.60;5.10;;;28.10;66.50;;;;;;5048430;28;20057;-44
2023/07/20 12:28:14;;;;;;;5.72;5.10;;;28.50;67.70;;;;;;5045917;28;20040;-46
2023/07/20 12:30:46;;;;;;;5.57;5.07;;;28.80;67.40;;;;;;5047905;28;20076;-43
2023/07/20 12:33:17;;;;;;;5.70;5.22;;;28.60;63.70;;;;;;5048486;28;20075;-44
2023/07/20 12:35:44;;;;;;;5.50;5.10;;;28.50;60.90;;;;;;5047805;28;20424;-49
2023/07/20 12:38:12;;;;;;;8.10;4.97;;;28.60;62.50;;;;;;5046937;28;20049;-42
2023/07/20 12:40:40;;;;;;;5.35;4.90;;;29.00;64.20;;;;;;5046749;28;20611;-43
2023/07/20 12:43:08;;;;;;;5.70;4.90;;;29.20;63.40;;;;;;5045566;28;20045;-48
2023/07/20 12:45:35;;;;;;;7.00;5.20;;;29.50;62.90;;;;;;5027679;28;20078;-48
2023/07/20 12:48:03;;;;;;;5.63;5.13;;;29.20;64.50;;;;;;5048508;28;20138;-45
2023/07/20 12:50:30;;;;;;;5.75;5.25;;;29.50;64.60;;;;;;5048397;28;20037;-41
2023/07/20 12:52:58;;;;;;;5.68;5.15;;;29.40;63.30;;;;;;5049612;28;20456;-41
2023/07/20 12:55:25;;;;;;;5.82;5.32;;;29.50;64.00;;;;;;5050204;28;20110;-44